Time;durP1;ratioP1;P1;durP2;ratioP2;P2;SDS_P1;SDS_P2;PMS_P1;PMS_P2;Temp;Humidity;BMP_temperature;BMP_pressure;BME280_temperature;BME280_humidity;BME280_pressure;Samples;Min_cycle;Max_cycle;Signal;HPM_P1;HPM_P2
2022/11/12 00:00:44;;;;;;;20.92;13.50;;;;;;;;;;4995345;28;20054;-69
2022/11/12 00:03:11;;;;;;;17.65;12.18;;;;;;;;;;4992182;28;20043;-67
2022/11/12 00:05:38;;;;;;;14.57;11.57;;;;;;;;;;4991911;28;20108;-68
2022/11/12 00:08:04;;;;;;;18.20;13.07;;;;;;;;;;4974322;28;20054;-68
2022/11/12 00:10:31;;;;;;;18.05;12.27;;;;;;;;;;4991654;28;20488;-68
2022/11/12 00:12:58;;;;;;;19.52;13.02;;;;;;;;;;4991879;28;20050;-68
2022/11/12 00:15:25;;;;;;;18.83;12.02;;;;;;;;;;4974786;28;20120;-69
2022/11/12 00:17:52;;;;;;;16.90;12.23;;;;;;;;;;4991267;28;20055;-68
2022/11/12 00:20:18;;;;;;;14.95;10.98;;;;;;;;;;4991811;28;20101;-69
2022/11/12 00:22:45;;;;;;;17.48;12.15;;;;;;;;;;4958594;28;20493;-68
2022/11/12 00:25:12;;;;;;;14.07;10.57;;;;;;;;;;4991709;28;20046;-67
2022/11/12 00:27:38;;;;;;;16.27;11.15;;;;;;;;;;4992029;28;20047;-68
2022/11/12 00:30:06;;;;;;;14.02;10.68;;;;;;;;;;4991347;28;20505;-67
2022/11/12 00:32:35;;;;;;;15.77;10.93;;;;;;;;;;4974443;28;20460;-68
2022/11/12 00:35:05;;;;;;;16.10;10.45;;;;;;;;;;4991837;28;20070;-68
2022/11/12 00:37:36;;;;;;;13.30;10.13;;;;;;;;;;4991772;28;20081;-66
2022/11/12 00:40:03;;;;;;;16.15;10.80;;;;;;;;;;4991377;28;20054;-67
2022/11/12 00:42:30;;;;;;;15.10;10.32;;;;;;;;;;4974544;28;20116;-67
2022/11/12 00:44:56;;;;;;;13.23;10.57;;;;;;;;;;4991532;28;20078;-67
2022/11/12 00:47:23;;;;;;;11.15;9.60;;;;;;;;;;4991730;28;20104;-68
2022/11/12 00:49:50;;;;;;;12.52;9.93;;;;;;;;;;4973441;28;20074;-67
2022/11/12 00:52:16;;;;;;;11.63;9.85;;;;;;;;;;4991611;28;20584;-67
2022/11/12 00:54:43;;;;;;;14.30;10.48;;;;;;;;;;4991544;28;20050;-68
2022/11/12 00:57:10;;;;;;;12.25;9.90;;;;;;;;;;4974585;28;20425;-69
2022/11/12 00:59:36;;;;;;;12.90;10.23;;;;;;;;;;4994064;28;20384;-68
2022/11/12 01:02:03;;;;;;;12.95;10.85;;;;;;;;;;4995094;28;20058;-68
2022/11/12 01:04:29;;;;;;;11.57;9.23;;;;;;;;;;4994831;28;20081;-68
2022/11/12 01:06:56;;;;;;;14.50;10.52;;;;;;;;;;4994885;28;20489;-68
2022/11/12 01:09:23;;;;;;;13.75;9.93;;;;;;;;;;4994390;28;20047;-67
2022/11/12 01:11:49;;;;;;;12.20;10.45;;;;;;;;;;4977879;28;20124;-68
2022/11/12 01:14:16;;;;;;;17.98;11.13;;;;;;;;;;4994714;28;20124;-68
2022/11/12 01:16:43;;;;;;;14.40;10.23;;;;;;;;;;4994925;28;20058;-68
2022/11/12 01:19:10;;;;;;;14.73;10.07;;;;;;;;;;4994086;28;20050;-68
2022/11/12 01:21:39;;;;;;;14.60;10.23;;;;;;;;;;4961866;28;20065;-67
2022/11/12 01:24:06;;;;;;;13.35;10.30;;;;;;;;;;4993008;28;20482;-68
2022/11/12 01:26:33;;;;;;;17.10;10.60;;;;;;;;;;4977769;28;20173;-69
2022/11/12 01:28:59;;;;;;;12.80;10.00;;;;;;;;;;4993943;28;20092;-67
2022/11/12 01:31:28;;;;;;;16.23;10.27;;;;;;;;;;4977382;28;20124;-68
2022/11/12 01:33:57;;;;;;;11.70;9.45;;;;;;;;;;4961172;28;20100;-67
2022/11/12 01:36:25;;;;;;;12.60;9.45;;;;;;;;;;4961547;28;20050;-68
2022/11/12 01:38:52;;;;;;;14.93;9.68;;;;;;;;;;4976199;28;20111;-68
2022/11/12 01:41:25;;;;;;;14.00;10.45;;;;;;;;;;4977032;28;20085;-68
2022/11/12 01:44:11;;;;;;;13.73;9.70;;;;;;;;;;4994276;28;20074;-68
2022/11/12 01:47:04;;;;;;;11.68;9.18;;;;;;;;;;4994439;28;20050;-67
2022/11/12 01:49:32;;;;;;;14.02;10.45;;;;;;;;;;4962527;28;20053;-67
2022/11/12 01:52:12;;;;;;;14.65;10.50;;;;;;;;;;4976888;28;20104;-68
2022/11/12 01:54:38;;;;;;;14.77;9.98;;;;;;;;;;4962034;28;20093;-68
2022/11/12 01:57:05;;;;;;;11.93;9.48;;;;;;;;;;4994155;28;20050;-68
2022/11/12 01:59:35;;;;;;;13.02;9.98;;;;;;;;;;4993265;28;20050;-67
2022/11/12 02:02:02;;;;;;;15.95;11.40;;;;;;;;;;4976780;28;20054;-67
2022/11/12 02:04:28;;;;;;;11.15;9.90;;;;;;;;;;4960498;28;20490;-67
2022/11/12 02:06:55;;;;;;;13.85;10.38;;;;;;;;;;4976513;28;20493;-68
2022/11/12 02:09:22;;;;;;;12.65;10.05;;;;;;;;;;4960115;28;20061;-68
2022/11/12 02:11:49;;;;;;;13.00;10.18;;;;;;;;;;4960674;28;20125;-68
2022/11/12 02:14:16;;;;;;;12.93;9.77;;;;;;;;;;4993555;28;20046;-68
2022/11/12 02:16:44;;;;;;;15.45;10.35;;;;;;;;;;4960565;28;20056;-68
2022/11/12 02:19:13;;;;;;;13.88;10.07;;;;;;;;;;4993091;28;20058;-67
2022/11/12 02:21:40;;;;;;;12.95;10.27;;;;;;;;;;4960650;28;20472;-67
2022/11/12 02:24:12;;;;;;;14.13;10.50;;;;;;;;;;4976626;28;20046;-67
2022/11/12 02:26:40;;;;;;;14.90;10.95;;;;;;;;;;4995015;28;20124;-67
2022/11/12 02:29:07;;;;;;;16.50;11.73;;;;;;;;;;4959789;28;20050;-67
2022/11/12 02:31:34;;;;;;;13.23;9.95;;;;;;;;;;4976161;28;20474;-68
2022/11/12 02:34:01;;;;;;;12.73;10.30;;;;;;;;;;4960035;28;20104;-68
2022/11/12 02:36:28;;;;;;;14.52;9.73;;;;;;;;;;4976071;28;20112;-67
2022/11/12 02:38:55;;;;;;;13.25;9.75;;;;;;;;;;4959281;28;20058;-67
2022/11/12 02:41:22;;;;;;;13.52;10.10;;;;;;;;;;4960134;28;20074;-67
2022/11/12 02:43:48;;;;;;;12.05;9.75;;;;;;;;;;4959785;28;20413;-68
2022/11/12 02:46:15;;;;;;;11.48;9.10;;;;;;;;;;4990844;28;20050;-67
2022/11/12 02:48:42;;;;;;;14.25;9.80;;;;;;;;;;4973664;28;20050;-68
2022/11/12 02:51:08;;;;;;;13.15;8.98;;;;;;;;;;4975423;28;20101;-68
2022/11/12 02:53:35;;;;;;;14.60;10.55;;;;;;;;;;4975955;28;20124;-67
2022/11/12 02:56:02;;;;;;;12.90;9.60;;;;;;;;;;4992947;28;20042;-68
2022/11/12 02:58:29;;;;;;;12.15;9.35;;;;;;;;;;4975266;28;20054;-68
2022/11/12 03:00:56;;;;;;;11.45;9.50;;;;;;;;;;4975504;28;20473;-67
2022/11/12 03:03:23;;;;;;;11.27;9.35;;;;;;;;;;4992722;28;20493;-67
2022/11/12 03:05:57;;;;;;;11.25;9.75;;;;;;;;;;4993118;28;20093;-68
2022/11/12 03:08:24;;;;;;;14.68;9.32;;;;;;;;;;4975192;28;20101;-68
2022/11/12 03:10:51;;;;;;;11.43;9.27;;;;;;;;;;4959682;28;20657;-67
2022/11/12 03:13:18;;;;;;;12.65;9.38;;;;;;;;;;4959523;28;20061;-67
2022/11/12 03:15:45;;;;;;;11.25;9.70;;;;;;;;;;4975100;28;20096;-69
2022/11/12 03:18:11;;;;;;;11.35;9.45;;;;;;;;;;4975207;28;20464;-67
2022/11/12 03:20:38;;;;;;;13.48;9.52;;;;;;;;;;4974793;28;20050;-67
2022/11/12 03:23:09;;;;;;;11.65;9.05;;;;;;;;;;4985620;28;20051;-67
2022/11/12 03:25:36;;;;;;;12.00;8.88;;;;;;;;;;4988489;28;20050;-66
2022/11/12 03:28:08;;;;;;;12.80;9.05;;;;;;;;;;4978225;28;20050;-67
2022/11/12 03:30:37;;;;;;;10.82;9.40;;;;;;;;;;4991084;28;20054;-67
2022/11/12 03:33:04;;;;;;;9.60;8.23;;;;;;;;;;4992248;28;20097;-67
2022/11/12 03:35:32;;;;;;;10.15;8.48;;;;;;;;;;5007354;28;20046;-68
2022/11/12 03:41:46;;;;;;;10.65;8.75;;;;;;;;;;4992231;28;20053;-67
2022/11/12 03:44:12;;;;;;;10.85;8.23;;;;;;;;;;4992140;28;20089;-68
2022/11/12 03:46:39;;;;;;;10.32;8.07;;;;;;;;;;4992137;28;20097;-67
2022/11/12 03:49:10;;;;;;;10.57;8.50;;;;;;;;;;4991582;28;20046;-68
2022/11/12 03:51:36;;;;;;;9.27;7.68;;;;;;;;;;4992001;28;20058;-67
2022/11/12 03:54:03;;;;;;;10.00;8.27;;;;;;;;;;4991755;28;20046;-68
2022/11/12 03:56:30;;;;;;;13.15;9.15;;;;;;;;;;4974915;28;20100;-69
2022/11/12 03:58:56;;;;;;;11.05;9.23;;;;;;;;;;4991453;28;20089;-68
2022/11/12 04:01:23;;;;;;;11.40;9.05;;;;;;;;;;4992105;28;20194;-68
2022/11/12 04:03:49;;;;;;;12.23;9.55;;;;;;;;;;4974753;28;20050;-67
2022/11/12 04:09:02;;;;;;;13.32;9.80;;;;;;;;;;4991459;28;20050;-67
2022/11/12 04:11:28;;;;;;;12.25;9.00;;;;;;;;;;4991919;28;20092;-67
2022/11/12 04:13:55;;;;;;;11.52;9.15;;;;;;;;;;4991773;28;20098;-67
2022/11/12 04:21:57;;;;;;;10.02;8.90;;;;;;;;;;4944699;28;20054;-68
2022/11/12 04:27:12;;;;;;;8.90;7.93;;;;;;;;;;5029234;22;20507;-68
2022/11/12 04:32:24;;;;;;;9.40;8.30;;;;;;;;;;5012040;28;20524;-68
2022/11/12 04:34:51;;;;;;;8.60;7.70;;;;;;;;;;5015533;28;20137;-69
2022/11/12 04:37:18;;;;;;;8.95;7.68;;;;;;;;;;5015476;28;20157;-69
2022/11/12 04:39:49;;;;;;;9.02;7.88;;;;;;;;;;5014821;28;20129;-69
2022/11/12 04:45:03;;;;;;;10.15;7.90;;;;;;;;;;5015080;28;20132;-69
2022/11/12 04:47:34;;;;;;;9.07;8.02;;;;;;;;;;5015087;28;20428;-69
2022/11/12 04:50:03;;;;;;;8.77;7.63;;;;;;;;;;5013925;28;20096;-68
2022/11/12 04:52:30;;;;;;;8.20;7.18;;;;;;;;;;5015200;28;20145;-69
2022/11/12 04:54:57;;;;;;;8.90;7.90;;;;;;;;;;5015045;28;20412;-70
2022/11/12 04:57:24;;;;;;;10.45;7.43;;;;;;;;;;5015076;28;20140;-69
2022/11/12 04:59:50;;;;;;;8.35;6.97;;;;;;;;;;5014158;28;20050;-69
2022/11/12 05:02:17;;;;;;;8.13;7.32;;;;;;;;;;5014892;28;20085;-68
2022/11/12 05:04:44;;;;;;;8.30;7.10;;;;;;;;;;5014963;28;20054;-68
2022/11/12 05:07:10;;;;;;;8.15;6.93;;;;;;;;;;5015055;28;20141;-69
2022/11/12 05:09:37;;;;;;;9.20;6.72;;;;;;;;;;5014294;28;20050;-69
2022/11/12 05:12:04;;;;;;;10.52;7.60;;;;;;;;;;5014788;28;20069;-69
2022/11/12 05:14:31;;;;;;;7.72;6.80;;;;;;;;;;5005475;28;20137;-69
2022/11/12 05:16:57;;;;;;;8.50;7.10;;;;;;;;;;4995312;28;20137;-69
2022/11/12 05:19:24;;;;;;;9.25;7.38;;;;;;;;;;4994703;28;20093;-69
2022/11/12 05:22:05;;;;;;;8.38;7.03;;;;;;;;;;4995189;28;20100;-70
2022/11/12 05:24:38;;;;;;;8.25;7.45;;;;;;;;;;4995260;28;20054;-69
2022/11/12 05:27:14;;;;;;;11.18;8.35;;;;;;;;;;4994671;28;20421;-68
2022/11/12 05:29:41;;;;;;;10.70;7.93;;;;;;;;;;4994404;28;20069;-69
2022/11/12 05:32:09;;;;;;;10.40;7.65;;;;;;;;;;4994750;28;20055;-69
2022/11/12 05:34:36;;;;;;;9.43;7.43;;;;;;;;;;4994716;28;20082;-69
2022/11/12 05:37:04;;;;;;;8.32;7.05;;;;;;;;;;4994840;28;20181;-69
2022/11/12 05:39:30;;;;;;;9.60;8.35;;;;;;;;;;5009182;28;20049;-69
2022/11/12 05:41:57;;;;;;;10.07;7.50;;;;;;;;;;5014234;28;20136;-69
2022/11/12 05:44:38;;;;;;;9.23;7.45;;;;;;;;;;5014113;28;20046;-69
2022/11/12 05:47:05;;;;;;;9.57;7.75;;;;;;;;;;5014276;28;20096;-69
2022/11/12 05:49:31;;;;;;;11.07;9.32;;;;;;;;;;5012194;28;20081;-69
2022/11/12 05:51:58;;;;;;;12.02;9.85;;;;;;;;;;4994535;28;20198;-68
2022/11/12 05:54:24;;;;;;;9.75;8.30;;;;;;;;;;5004726;28;20080;-69
2022/11/12 05:56:54;;;;;;;10.93;8.25;;;;;;;;;;5013644;28;20080;-69
2022/11/12 05:59:21;;;;;;;9.73;8.70;;;;;;;;;;4996209;28;20076;-69
2022/11/12 06:01:47;;;;;;;12.32;9.52;;;;;;;;;;5013831;28;20500;-70
2022/11/12 06:04:15;;;;;;;9.35;8.20;;;;;;;;;;5023748;28;20126;-69
2022/11/12 06:06:42;;;;;;;9.25;7.43;;;;;;;;;;5005597;28;20045;-69
2022/11/12 06:09:09;;;;;;;9.85;7.63;;;;;;;;;;5021163;28;20081;-68
2022/11/12 06:11:36;;;;;;;10.45;7.85;;;;;;;;;;5018871;28;20081;-68
2022/11/12 06:14:04;;;;;;;9.93;7.78;;;;;;;;;;5012391;28;20097;-69
2022/11/12 06:16:30;;;;;;;9.90;7.28;;;;;;;;;;5016557;28;20045;-68
2022/11/12 06:18:57;;;;;;;10.70;7.85;;;;;;;;;;5023455;28;20073;-68
2022/11/12 06:21:26;;;;;;;10.80;8.40;;;;;;;;;;5022751;28;20129;-68
2022/11/12 06:23:57;;;;;;;10.40;8.00;;;;;;;;;;5026907;28;20054;-69
2022/11/12 06:26:26;;;;;;;9.68;8.63;;;;;;;;;;5014080;28;20523;-69
2022/11/12 06:28:53;;;;;;;8.63;7.70;;;;;;;;;;5013094;28;20077;-69
2022/11/12 06:31:19;;;;;;;9.60;8.55;;;;;;;;;;5013583;28;20496;-69
2022/11/12 06:33:46;;;;;;;11.13;8.65;;;;;;;;;;5013265;28;20050;-69
2022/11/12 06:36:15;;;;;;;10.23;8.60;;;;;;;;;;5013455;28;20046;-67
2022/11/12 06:38:42;;;;;;;12.23;8.98;;;;;;;;;;5012912;28;20050;-69
2022/11/12 06:41:10;;;;;;;10.90;9.27;;;;;;;;;;5000563;28;20575;-69
2022/11/12 06:43:37;;;;;;;10.15;9.05;;;;;;;;;;4993640;28;20137;-69
2022/11/12 06:46:10;;;;;;;11.52;9.55;;;;;;;;;;4976246;28;20517;-68
2022/11/12 06:48:36;;;;;;;;;;;;;;;;;;4993547;28;20129;-68
2022/11/12 06:51:09;;;;;;;10.18;8.82;;;;;;;;;;5005412;28;20012;-66
2022/11/12 06:53:35;;;;;;;11.77;8.82;;;;;;;;;;5012994;28;20081;-67
2022/11/12 06:56:03;;;;;;;12.48;9.73;;;;;;;;;;5011982;28;20056;-68
2022/11/12 06:58:30;;;;;;;13.95;8.57;;;;;;;;;;5012578;28;20092;-65
2022/11/12 07:00:56;;;;;;;12.90;10.02;;;;;;;;;;5012828;28;20049;-68
2022/11/12 07:03:23;;;;;;;14.10;10.13;;;;;;;;;;4999419;28;20137;-68
2022/11/12 07:05:50;;;;;;;11.43;8.60;;;;;;;;;;4993232;28;20474;-67
2022/11/12 07:08:16;;;;;;;11.20;9.25;;;;;;;;;;4975548;28;20050;-68
2022/11/12 07:10:43;;;;;;;12.38;9.55;;;;;;;;;;4993019;28;20101;-68
2022/11/12 07:13:09;;;;;;;10.48;9.25;;;;;;;;;;4992942;28;20136;-66
2022/11/12 07:15:36;;;;;;;11.73;9.00;;;;;;;;;;4997990;28;20117;-66
2022/11/12 07:18:02;;;;;;;13.70;10.45;;;;;;;;;;4993562;28;20088;-66
2022/11/12 07:20:29;;;;;;;12.68;10.63;;;;;;;;;;4992676;28;20089;-67
2022/11/12 07:22:59;;;;;;;12.30;10.82;;;;;;;;;;4992919;28;20678;-67
2022/11/12 07:25:25;;;;;;;11.50;9.38;;;;;;;;;;4992765;28;20082;-67
2022/11/12 07:27:52;;;;;;;11.88;9.13;;;;;;;;;;4992256;28;20484;-66
2022/11/12 07:30:18;;;;;;;12.35;9.27;;;;;;;;;;4992780;28;20489;-67
2022/11/12 07:32:45;;;;;;;11.25;8.20;;;;;;;;;;4992760;28;20513;-67
2022/11/12 07:35:17;;;;;;;9.85;8.35;;;;;;;;;;4992961;28;20081;-68
2022/11/12 07:37:43;;;;;;;8.55;7.65;;;;;;;;;;4993203;28;20096;-68
2022/11/12 07:40:10;;;;;;;8.02;7.10;;;;;;;;;;5010342;28;20128;-66
2022/11/12 07:42:37;;;;;;;7.85;6.55;;;;;;;;;;5012204;28;20054;-67
2022/11/12 07:45:04;;;;;;;8.27;6.55;;;;;;;;;;5012257;28;20100;-67
2022/11/12 07:47:31;;;;;;;7.68;6.85;;;;;;;;;;5012364;28;20089;-67
2022/11/12 07:49:57;;;;;;;7.95;6.93;;;;;;;;;;5012377;28;20137;-67
2022/11/12 07:52:24;;;;;;;9.43;7.35;;;;;;;;;;4992999;28;20149;-67
2022/11/12 07:54:51;;;;;;;8.70;7.80;;;;;;;;;;4990745;28;20054;-68
2022/11/12 07:57:17;;;;;;;7.55;6.50;;;;;;;;;;4993339;28;20088;-69
2022/11/12 07:59:44;;;;;;;9.13;6.88;;;;;;;;;;4994272;28;20100;-70
2022/11/12 08:02:12;;;;;;;10.50;7.65;;;;;;;;;;5005846;28;20144;-69
2022/11/12 08:04:38;;;;;;;15.68;7.07;;;;;;;;;;5012448;28;20401;-69
2022/11/12 08:07:05;;;;;;;11.45;8.50;;;;;;;;;;5013138;28;20077;-68
2022/11/12 08:09:32;;;;;;;12.00;8.98;;;;;;;;;;5015585;28;20053;-68
2022/11/12 08:11:58;;;;;;;12.65;9.98;;;;;;;;;;5016330;28;20479;-68
2022/11/12 08:14:25;;;;;;;11.10;8.18;;;;;;;;;;5011641;28;20125;-69
2022/11/12 08:16:52;;;;;;;7.97;7.18;;;;;;;;;;4996350;28;20125;-67
2022/11/12 08:19:18;;;;;;;9.25;8.15;;;;;;;;;;4980327;28;20097;-68
2022/11/12 08:21:45;;;;;;;8.43;6.60;;;;;;;;;;4996441;28;20050;-68
2022/11/12 08:24:11;;;;;;;9.32;6.43;;;;;;;;;;4996184;28;20524;-66
2022/11/12 08:26:38;;;;;;;7.93;6.65;;;;;;;;;;5001272;28;20129;-67
2022/11/12 08:29:05;;;;;;;7.88;6.18;;;;;;;;;;5014835;28;20129;-68
2022/11/12 08:31:34;;;;;;;9.43;7.20;;;;;;;;;;5014904;28;20465;-65
2022/11/12 08:34:10;;;;;;;7.22;6.53;;;;;;;;;;5016996;28;20114;-67
2022/11/12 08:36:39;;;;;;;7.03;5.60;;;;;;;;;;5016187;28;20050;-66
2022/11/12 08:39:06;;;;;;;6.97;6.28;;;;;;;;;;5015517;28;20531;-71
2022/11/12 08:41:33;;;;;;;7.45;6.35;;;;;;;;;;5015577;28;20084;-65
2022/11/12 08:44:00;;;;;;;6.70;5.63;;;;;;;;;;5015558;28;20111;-66
2022/11/12 08:46:33;;;;;;;7.78;6.22;;;;;;;;;;5015382;28;20060;-66
2022/11/12 08:49:00;;;;;;;5.90;5.25;;;;;;;;;;5014688;28;20050;-65
2022/11/12 08:51:27;;;;;;;6.00;5.40;;;;;;;;;;4992105;28;20236;-64
2022/11/12 08:53:54;;;;;;;7.90;5.65;;;;;;;;;;5012463;28;20064;-71
2022/11/12 08:56:21;;;;;;;6.90;5.75;;;;;;;;;;5007096;28;20119;-73
2022/11/12 08:58:47;;;;;;;6.38;5.43;;;;;;;;;;5011249;28;20065;-72
2022/11/12 09:01:14;;;;;;;6.22;5.40;;;;;;;;;;5011939;28;20096;-73
2022/11/12 09:03:41;;;;;;;7.82;5.38;;;;;;;;;;5011222;28;20062;-72
2022/11/12 09:06:07;;;;;;;5.85;5.25;;;;;;;;;;5012200;28;20104;-71
2022/11/12 09:08:35;;;;;;;6.20;5.60;;;;;;;;;;5010759;28;20049;-68
2022/11/12 09:11:02;;;;;;;7.75;5.35;;;;;;;;;;5013822;28;20073;-67
2022/11/12 09:13:31;;;;;;;5.80;5.20;;;;;;;;;;5015064;28;20587;-69
2022/11/12 09:16:05;;;;;;;8.25;5.88;;;;;;;;;;5014615;28;20555;-69
2022/11/12 09:18:32;;;;;;;6.28;5.63;;;;;;;;;;5013208;28;20505;-69
2022/11/12 09:21:03;;;;;;;6.13;5.40;;;;;;;;;;5012467;28;20245;-69
2022/11/12 09:23:29;;;;;;;6.07;5.28;;;;;;;;;;5013701;28;20069;-69
2022/11/12 09:25:56;;;;;;;6.28;5.57;;;;;;;;;;5013241;28;20104;-69
2022/11/12 09:28:23;;;;;;;6.63;5.93;;;;;;;;;;5010358;28;20077;-69
2022/11/12 09:30:52;;;;;;;6.93;5.53;;;;;;;;;;5013560;28;20345;-69
2022/11/12 09:33:24;;;;;;;6.85;5.75;;;;;;;;;;5013855;28;20050;-68
2022/11/12 09:35:51;;;;;;;6.63;5.17;;;;;;;;;;5014291;28;20128;-69
2022/11/12 09:38:18;;;;;;;6.65;5.82;;;;;;;;;;5007647;28;20054;-69
2022/11/12 09:40:50;;;;;;;6.38;5.78;;;;;;;;;;4994958;28;20050;-70
2022/11/12 09:43:27;;;;;;;7.20;5.88;;;;;;;;;;4994870;28;20081;-70
2022/11/12 09:45:55;;;;;;;6.10;5.50;;;;;;;;;;4978923;28;20085;-69
2022/11/12 09:48:45;;;;;;;6.57;5.55;;;;;;;;;;4979730;28;20054;-70
2022/11/12 09:51:23;;;;;;;6.03;5.18;;;;;;;;;;4978119;28;20078;-70
2022/11/12 09:53:55;;;;;;;6.45;5.80;;;;;;;;;;4977224;28;20371;-70
2022/11/12 09:56:22;;;;;;;6.35;5.75;;;;;;;;;;4977449;28;20120;-69
2022/11/12 09:58:49;;;;;;;5.95;4.93;;;;;;;;;;4976805;28;20441;-70
2022/11/12 10:01:26;;;;;;;5.68;5.15;;;;;;;;;;4994530;28;20086;-70
2022/11/12 10:04:21;;;;;;;5.70;4.70;;;;;;;;;;4976364;28;20595;-70
2022/11/12 10:06:48;;;;;;;6.60;4.82;;;;;;;;;;5012742;28;20137;-68
2022/11/12 10:09:27;;;;;;;5.07;4.57;;;;;;;;;;5013293;28;20100;-69
2022/11/12 10:18:07;;;;;;;5.78;4.57;;;;;;;;;;5012549;28;20149;-70
2022/11/12 10:20:51;;;;;;;4.83;4.30;;;;;;;;;;5012550;28;20088;-70
2022/11/12 10:23:25;;;;;;;4.88;4.38;;;;;;;;;;5012709;28;20050;-70
2022/11/12 10:25:54;;;;;;;5.28;4.07;;;;;;;;;;5037695;23;20078;-68
2022/11/12 10:28:25;;;;;;;4.82;4.13;;;;;;;;;;5012809;28;20059;-68
2022/11/12 10:30:59;;;;;;;4.38;3.97;;;;;;;;;;5031974;28;20507;-67
2022/11/12 10:33:29;;;;;;;5.32;4.20;;;;;;;;;;4999448;28;20479;-67
2022/11/12 10:36:14;;;;;;;4.63;3.92;;;;;;;;;;5032794;28;20049;-66
2022/11/12 10:38:41;;;;;;;7.57;3.63;;;;;;;;;;5017084;28;20151;-66
2022/11/12 10:41:37;;;;;;;5.45;3.97;;;;;;;;;;5032829;28;20084;-66
2022/11/12 10:44:05;;;;;;;4.47;3.60;;;;;;;;;;5016164;28;20049;-66
2022/11/12 10:46:35;;;;;;;5.28;4.00;;;;;;;;;;5015300;28;20121;-66
2022/11/12 10:49:03;;;;;;;5.45;3.70;;;;;;;;;;5015228;28;20080;-67
2022/11/12 10:51:32;;;;;;;3.95;3.60;;;;;;;;;;5019233;28;20132;-67
2022/11/12 10:54:17;;;;;;;5.53;4.55;;;;;;;;;;5012754;28;20089;-66
2022/11/12 10:56:44;;;;;;;4.03;3.60;;;;;;;;;;4997836;28;20457;-67
2022/11/12 10:59:16;;;;;;;6.07;3.75;;;;;;;;;;5012358;28;20378;-68
2022/11/12 11:01:44;;;;;;;9.05;4.45;;;;;;;;;;5012603;28;20426;-68
2022/11/12 11:04:22;;;;;;;5.15;4.65;;;;;;;;;;5024364;28;20045;-67
2022/11/12 11:06:57;;;;;;;4.82;4.30;;;;;;;;;;4997776;28;20042;-67
2022/11/12 11:09:23;;;;;;;5.75;3.75;;;;;;;;;;4994808;28;20584;-68
2022/11/12 11:11:52;;;;;;;6.57;4.18;;;;;;;;;;4995495;28;20085;-68
2022/11/12 11:14:23;;;;;;;4.97;3.65;;;;;;;;;;5018053;28;20165;-68
2022/11/12 11:16:52;;;;;;;5.60;3.83;;;;;;;;;;5032995;28;20049;-68
2022/11/12 11:19:19;;;;;;;3.72;3.40;;;;;;;;;;5031461;28;20053;-69
2022/11/12 11:21:49;;;;;;;4.22;3.70;;;;;;;;;;5032231;28;20500;-67
2022/11/12 11:24:18;;;;;;;4.03;3.60;;;;;;;;;;5032006;28;20132;-68
2022/11/12 11:27:03;;;;;;;5.35;3.53;;;;;;;;;;5022556;28;20132;-68
2022/11/12 11:30:01;;;;;;;3.92;3.50;;;;;;;;;;5011590;28;20085;-68
2022/11/12 11:32:43;;;;;;;4.38;3.97;;;;;;;;;;5011715;28;20144;-68
2022/11/12 11:35:28;;;;;;;4.30;3.60;;;;;;;;;;5012161;28;20428;-69
2022/11/12 11:38:02;;;;;;;3.88;3.40;;;;;;;;;;5011387;28;20468;-69
2022/11/12 11:40:36;;;;;;;5.40;3.90;;;;;;;;;;4998805;28;20092;-68
2022/11/12 11:43:24;;;;;;;4.05;3.65;;;;;;;;;;4998851;28;20220;-69
2022/11/12 11:46:09;;;;;;;6.22;4.07;;;;;;;;;;5031906;28;20140;-68
2022/11/12 11:48:49;;;;;;;4.97;3.65;;;;;;;;;;5013817;28;20095;-68
2022/11/12 11:51:36;;;;;;;6.13;4.30;;;;;;;;;;5014647;28;20096;-70
2022/11/12 11:54:22;;;;;;;4.28;3.88;;;;;;;;;;5014257;28;20316;-69
2022/11/12 11:56:49;;;;;;;4.82;3.60;;;;;;;;;;5011971;28;20093;-68
2022/11/12 11:59:28;;;;;;;4.97;3.63;;;;;;;;;;4978813;28;20081;-69
2022/11/12 12:02:26;;;;;;;5.25;3.72;;;;;;;;;;5012456;28;20089;-68
2022/11/12 12:05:19;;;;;;;4.38;3.90;;;;;;;;;;5011828;28;20137;-69
2022/11/12 12:07:54;;;;;;;4.67;4.03;;;;;;;;;;5001530;28;20413;-69
2022/11/12 12:10:23;;;;;;;4.35;3.75;;;;;;;;;;4994271;28;20092;-68
2022/11/12 12:13:31;;;;;;;5.05;3.88;;;;;;;;;;5012040;28;20141;-69
2022/11/12 12:16:07;;;;;;;4.38;3.78;;;;;;;;;;5011972;28;20140;-69
2022/11/12 12:18:47;;;;;;;7.07;3.88;;;;;;;;;;5011203;28;20050;-69
2022/11/12 12:21:18;;;;;;;5.95;4.22;;;;;;;;;;4995640;28;20152;-69
2022/11/12 12:23:51;;;;;;;5.85;3.92;;;;;;;;;;5011622;28;20092;-67
2022/11/12 12:26:26;;;;;;;3.88;3.38;;;;;;;;;;5011563;28;20085;-69
2022/11/12 12:29:06;;;;;;;4.63;4.13;;;;;;;;;;5011338;28;20093;-68
2022/11/12 12:31:37;;;;;;;5.88;4.72;;;;;;;;;;4995994;28;20137;-69
2022/11/12 12:34:11;;;;;;;4.25;3.83;;;;;;;;;;4978341;28;20149;-69
2022/11/12 12:36:40;;;;;;;4.75;4.20;;;;;;;;;;4979053;28;20128;-67
2022/11/12 12:39:17;;;;;;;6.95;4.32;;;;;;;;;;4987570;28;20096;-69
2022/11/12 12:42:11;;;;;;;6.88;5.18;;;;;;;;;;5014845;28;20561;-67
2022/11/12 12:45:00;;;;;;;8.25;5.25;;;;;;;;;;5013641;28;20048;-69
2022/11/12 12:47:28;;;;;;;7.97;5.40;;;;;;;;;;5002352;28;20573;-69
2022/11/12 12:49:54;;;;;;;7.43;4.28;;;;;;;;;;5029602;28;20073;-68
2022/11/12 12:52:21;;;;;;;5.97;4.47;;;;;;;;;;4994085;28;20531;-69
2022/11/12 12:54:50;;;;;;;6.35;4.50;;;;;;;;;;5013397;28;20144;-67
2022/11/12 12:57:35;;;;;;;5.25;4.78;;;;;;;;;;5015203;28;20455;-68
2022/11/12 13:00:31;;;;;;;5.45;4.13;;;;;;;;;;4997270;28;20118;-67
2022/11/12 13:02:58;;;;;;;6.65;4.53;;;;;;;;;;4997513;28;20046;-67
2022/11/12 13:05:33;;;;;;;5.97;4.45;;;;;;;;;;4997507;28;20619;-68
2022/11/12 13:08:08;;;;;;;9.00;7.35;;;;;;;;;;5014547;28;20461;-66
2022/11/12 13:10:37;;;;;;;7.68;6.03;;;;;;;;;;5014982;28;20072;-67
2022/11/12 13:13:16;;;;;;;10.75;6.75;;;;;;;;;;5014838;28;20065;-68
2022/11/12 13:15:42;;;;;;;15.88;10.85;;;;;;;;;;5014974;28;20140;-68
2022/11/12 13:18:09;;;;;;;16.23;10.30;;;;;;;;;;5033848;28;20544;-69
2022/11/12 13:20:42;;;;;;;9.02;6.75;;;;;;;;;;5017692;28;20460;-68
2022/11/12 13:23:10;;;;;;;7.60;5.57;;;;;;;;;;5000517;28;20088;-69
2022/11/12 13:25:37;;;;;;;9.82;7.32;;;;;;;;;;5034648;28;20144;-69
2022/11/12 13:28:06;;;;;;;6.45;5.00;;;;;;;;;;4994781;28;20129;-69
2022/11/12 13:30:32;;;;;;;8.95;6.38;;;;;;;;;;4994894;28;20084;-68
2022/11/12 13:33:01;;;;;;;8.00;5.38;;;;;;;;;;4994904;28;20145;-68
2022/11/12 13:35:31;;;;;;;7.45;4.50;;;;;;;;;;4993829;28;20425;-70
2022/11/12 13:38:03;;;;;;;6.50;4.68;;;;;;;;;;4992926;28;20062;-69
2022/11/12 13:40:46;;;;;;;7.10;4.60;;;;;;;;;;5000057;28;20053;-70
2022/11/12 13:43:26;;;;;;;5.32;4.68;;;;;;;;;;5016873;28;20149;-69
2022/11/12 13:45:54;;;;;;;6.60;4.72;;;;;;;;;;5034053;28;20045;-68
2022/11/12 13:48:24;;;;;;;4.82;4.20;;;;;;;;;;5033298;28;20084;-69
2022/11/12 13:50:56;;;;;;;5.65;4.20;;;;;;;;;;5016100;28;20053;-68
2022/11/12 13:53:25;;;;;;;5.05;3.80;;;;;;;;;;5016867;28;20099;-69
2022/11/12 13:55:53;;;;;;;4.85;4.22;;;;;;;;;;5033750;28;20085;-68
2022/11/12 13:58:27;;;;;;;6.05;4.72;;;;;;;;;;5033147;28;20077;-68
2022/11/12 14:00:59;;;;;;;5.82;4.30;;;;;;;;;;5016476;28;20057;-68
2022/11/12 14:03:43;;;;;;;7.32;4.50;;;;;;;;;;5033490;28;20053;-68
2022/11/12 14:06:32;;;;;;;6.03;4.70;;;;;;;;;;5031994;28;20568;-68
2022/11/12 14:09:18;;;;;;;5.53;4.78;;;;;;;;;;5018084;28;20111;-69
2022/11/12 14:11:54;;;;;;;6.15;4.68;;;;;;;;;;5033420;28;20457;-68
2022/11/12 14:14:31;;;;;;;6.18;4.90;;;;;;;;;;5016237;28;20478;-68
2022/11/12 14:17:09;;;;;;;7.10;4.97;;;;;;;;;;5005522;28;20101;-67
2022/11/12 14:19:53;;;;;;;5.47;4.90;;;;;;;;;;4993146;28;20046;-68
2022/11/12 14:22:20;;;;;;;7.68;5.30;;;;;;;;;;4993900;28;20054;-68
2022/11/12 14:24:50;;;;;;;6.18;5.57;;;;;;;;;;4994165;28;20133;-68
2022/11/12 14:27:32;;;;;;;6.57;5.47;;;;;;;;;;4990344;28;20128;-69
2022/11/12 14:30:16;;;;;;;6.85;6.15;;;;;;;;;;5016517;28;20104;-69
2022/11/12 14:32:44;;;;;;;6.88;5.55;;;;;;;;;;5013325;28;20129;-68
2022/11/12 14:35:23;;;;;;;7.80;6.10;;;;;;;;;;5013586;28;20080;-69
2022/11/12 14:38:13;;;;;;;6.07;5.47;;;;;;;;;;5012661;28;20144;-69
2022/11/12 14:40:52;;;;;;;6.47;5.55;;;;;;;;;;5014655;28;20140;-68
2022/11/12 14:43:23;;;;;;;8.57;6.38;;;;;;;;;;5032891;28;20140;-69
2022/11/12 14:45:54;;;;;;;9.10;6.85;;;;;;;;;;5015652;28;20099;-68
2022/11/12 14:48:20;;;;;;;9.05;7.10;;;;;;;;;;5014970;28;20554;-68
2022/11/12 14:50:48;;;;;;;11.93;7.50;;;;;;;;;;5032677;28;20500;-68
2022/11/12 14:53:19;;;;;;;9.98;7.45;;;;;;;;;;5015591;28;20084;-67
2022/11/12 14:55:52;;;;;;;11.15;8.43;;;;;;;;;;5032423;28;20053;-68
2022/11/12 14:58:20;;;;;;;11.68;8.80;;;;;;;;;;5014590;28;20132;-68
2022/11/12 15:00:49;;;;;;;11.45;8.63;;;;;;;;;;5032450;28;20140;-68
2022/11/12 15:03:18;;;;;;;11.38;9.10;;;;;;;;;;5015448;28;20050;-69
2022/11/12 15:06:18;;;;;;;9.52;8.20;;;;;;;;;;5015025;28;20132;-68
2022/11/12 15:08:55;;;;;;;10.85;8.48;;;;;;;;;;5014632;28;20493;-69
2022/11/12 15:11:29;;;;;;;9.45;8.45;;;;;;;;;;5032415;28;20085;-68
2022/11/12 15:13:56;;;;;;;8.63;7.55;;;;;;;;;;5032465;28;20051;-69
2022/11/12 15:16:25;;;;;;;10.23;8.93;;;;;;;;;;5014229;28;20129;-69
2022/11/12 15:19:13;;;;;;;10.73;9.48;;;;;;;;;;5014525;28;20081;-68
2022/11/12 15:21:47;;;;;;;10.98;9.25;;;;;;;;;;4980732;28;20145;-69